Time;durP1;ratioP1;P1;durP2;ratioP2;P2;SDS_P1;SDS_P2;PMS_P1;PMS_P2;Temp;Humidity;BMP_temperature;BMP_pressure;BME280_temperature;BME280_humidity;BME280_pressure;Samples;Min_cycle;Max_cycle;Signal;HPM_P1;HPM_P2
2021/03/19 00:01:54;;;;;;;4.10;1.20;;;21.30;39.00;;;;;;5075462;28;20048;-46
2021/03/19 00:04:20;;;;;;;2.30;0.90;;;21.30;39.00;;;;;;5075545;28;20443;-45
2021/03/19 00:06:46;;;;;;;2.03;0.98;;;21.30;38.90;;;;;;5075609;28;20071;-47
2021/03/19 00:09:12;;;;;;;5.03;1.05;;;21.20;38.70;;;;;;5075651;28;20036;-51
2021/03/19 00:11:38;;;;;;;2.53;0.75;;;21.20;38.80;;;;;;5075593;28;20052;-47
2021/03/19 00:14:06;;;;;;;1.52;0.70;;;21.20;38.70;;;;;;5075979;28;20036;-47
2021/03/19 00:16:32;;;;;;;2.45;1.10;;;21.20;38.60;;;;;;5075399;28;20053;-50
2021/03/19 00:18:58;;;;;;;2.58;1.13;;;21.20;38.60;;;;;;5075749;28;20052;-48
2021/03/19 00:21:24;;;;;;;1.30;0.70;;;21.10;38.50;;;;;;5069903;28;20033;-49
2021/03/19 00:23:49;;;;;;;3.00;1.00;;;21.10;38.50;;;;;;5055014;28;20091;-46
2021/03/19 00:26:16;;;;;;;1.77;0.90;;;21.10;38.40;;;;;;5037498;28;20028;-48
2021/03/19 00:28:41;;;;;;;2.50;0.93;;;21.10;38.40;;;;;;5055511;28;20025;-49
2021/03/19 00:31:07;;;;;;;1.58;0.75;;;21.10;38.30;;;;;;5054927;28;20054;-49
2021/03/19 00:33:32;;;;;;;2.45;0.75;;;21.10;38.40;;;;;;5055383;28;20029;-45
2021/03/19 00:35:58;;;;;;;1.88;0.60;;;21.00;38.30;;;;;;5054773;28;20040;-49
2021/03/19 00:38:23;;;;;;;2.05;0.80;;;21.00;38.20;;;;;;5055185;28;20033;-51
2021/03/19 00:40:49;;;;;;;2.72;0.93;;;21.00;38.10;;;;;;5054873;28;20035;-49
2021/03/19 00:43:16;;;;;;;2.05;1.08;;;21.00;38.10;;;;;;5055042;28;20126;-47
2021/03/19 00:45:42;;;;;;;4.13;1.02;;;20.90;38.00;;;;;;5055038;28;20040;-49
2021/03/19 00:48:08;;;;;;;1.17;0.63;;;20.90;38.00;;;;;;5057874;28;20131;-46
2021/03/19 00:50:36;;;;;;;2.03;0.77;;;20.90;37.90;;;;;;5075038;28;20060;-47
2021/03/19 00:53:02;;;;;;;0.88;0.57;;;20.90;37.90;;;;;;5075178;28;20066;-45
2021/03/19 00:55:28;;;;;;;2.95;0.90;;;20.90;37.80;;;;;;5075005;28;20028;-46
2021/03/19 00:57:53;;;;;;;4.68;1.40;;;20.90;37.80;;;;;;5074866;28;20422;-46
2021/03/19 01:00:21;;;;;;;2.30;0.95;;;20.90;37.80;;;;;;5074912;28;20024;-45
2021/03/19 01:02:47;;;;;;;2.22;0.80;;;20.80;37.70;;;;;;5074719;28;20060;-47
2021/03/19 01:05:17;;;;;;;1.20;0.80;;;20.90;37.70;;;;;;5074779;28;20489;-49
2021/03/19 01:07:43;;;;;;;1.75;0.70;;;20.80;37.60;;;;;;5074654;28;20048;-49
2021/03/19 01:10:12;;;;;;;2.28;0.77;;;20.80;37.60;;;;;;5057006;28;20398;-46
2021/03/19 01:12:38;;;;;;;2.75;0.80;;;20.80;37.60;;;;;;5074808;28;20024;-50
2021/03/19 01:15:06;;;;;;;2.03;0.73;;;20.80;37.60;;;;;;5074668;28;20355;-47
2021/03/19 01:17:32;;;;;;;0.90;0.80;;;20.70;37.50;;;;;;5074797;28;20024;-46
2021/03/19 01:19:57;;;;;;;1.83;1.00;;;20.80;37.50;;;;;;5057043;28;20056;-45
2021/03/19 01:22:23;;;;;;;1.13;0.60;;;20.70;37.40;;;;;;5074694;28;20059;-45
2021/03/19 01:24:48;;;;;;;2.03;0.73;;;20.70;37.40;;;;;;5074165;28;20432;-47
2021/03/19 01:27:14;;;;;;;1.55;1.10;;;20.70;37.30;;;;;;5074401;28;20463;-48
2021/03/19 01:29:39;;;;;;;1.10;0.90;;;20.70;37.30;;;;;;5074403;28;20107;-49
2021/03/19 01:32:05;;;;;;;1.40;0.68;;;20.70;37.30;;;;;;5074846;28;20032;-48
2021/03/19 01:34:30;;;;;;;1.63;0.70;;;20.70;37.30;;;;;;5074898;28;20044;-46
2021/03/19 01:36:56;;;;;;;1.35;0.80;;;20.60;37.30;;;;;;5074207;28;20026;-46
2021/03/19 01:39:21;;;;;;;1.80;1.00;;;20.60;37.30;;;;;;5074321;28;20036;-47
2021/03/19 01:41:49;;;;;;;1.88;0.90;;;20.60;37.30;;;;;;5074069;28;20024;-47
2021/03/19 01:44:20;;;;;;;1.92;1.23;;;20.60;37.30;;;;;;5074744;28;20028;-47
2021/03/19 01:47:23;;;;;;;1.55;0.80;;;20.60;37.30;;;;;;5075608;28;20392;-48
2021/03/19 01:50:26;;;;;;;1.30;0.90;;;20.60;37.20;;;;;;5077812;28;20035;-47
2021/03/19 01:53:29;;;;;;;2.20;1.08;;;20.50;37.10;;;;;;5078111;28;20071;-47
2021/03/19 01:56:32;;;;;;;1.90;1.15;;;20.50;37.10;;;;;;5078502;28;20025;-48
2021/03/19 01:59:34;;;;;;;0.80;0.70;;;20.50;37.10;;;;;;5078015;28;20033;-45
2021/03/19 02:02:37;;;;;;;1.60;1.02;;;20.50;37.20;;;;;;5078044;28;20025;-46
2021/03/19 02:05:40;;;;;;;2.63;1.05;;;20.50;37.10;;;;;;5077884;28;20362;-45
2021/03/19 02:08:43;;;;;;;1.52;1.00;;;20.40;37.00;;;;;;5078062;28;20024;-48
2021/03/19 02:11:46;;;;;;;2.78;0.90;;;20.40;37.00;;;;;;5077914;28;20028;-45
2021/03/19 02:14:49;;;;;;;1.23;1.10;;;20.40;37.00;;;;;;5078012;28;20024;-44
2021/03/19 02:17:52;;;;;;;0.98;0.77;;;20.30;37.00;;;;;;5077737;28;20063;-46
2021/03/19 02:20:54;;;;;;;3.10;1.05;;;20.30;36.90;;;;;;5077700;28;20024;-45
2021/03/19 02:23:57;;;;;;;1.25;0.90;;;20.30;36.90;;;;;;5077532;28;20060;-50
2021/03/19 02:27:00;;;;;;;1.92;1.00;;;20.30;36.90;;;;;;5077270;28;20120;-45
2021/03/19 02:30:03;;;;;;;1.55;1.10;;;20.30;36.90;;;;;;5077040;28;20031;-47
2021/03/19 02:32:29;;;;;;;2.33;1.17;;;20.30;36.90;;;;;;5077456;28;20036;-46
2021/03/19 02:35:04;;;;;;;2.42;1.20;;;20.30;36.80;;;;;;5077440;28;20028;-47
2021/03/19 02:37:33;;;;;;;1.92;0.88;;;20.20;36.80;;;;;;5077280;28;20078;-48
2021/03/19 02:40:00;;;;;;;1.58;1.10;;;20.20;36.70;;;;;;5077258;28;20036;-47
2021/03/19 02:42:31;;;;;;;0.93;0.70;;;20.20;36.70;;;;;;5077249;28;20039;-47
2021/03/19 02:44:58;;;;;;;4.13;1.38;;;20.20;36.70;;;;;;5059826;28;20051;-51
2021/03/19 02:47:24;;;;;;;0.90;0.80;;;20.20;36.70;;;;;;5077210;28;20021;-46
2021/03/19 02:49:50;;;;;;;1.25;0.90;;;20.20;36.70;;;;;;5077580;28;20051;-47
2021/03/19 02:52:20;;;;;;;1.33;1.00;;;20.20;36.70;;;;;;5077156;28;20432;-48
2021/03/19 02:54:45;;;;;;;1.67;1.00;;;20.20;36.60;;;;;;5076847;28;20027;-48
2021/03/19 02:57:11;;;;;;;1.80;1.17;;;20.10;36.50;;;;;;5076775;28;20387;-46
2021/03/19 02:59:36;;;;;;;2.05;0.90;;;20.10;36.50;;;;;;5077369;28;20408;-49
2021/03/19 03:02:02;;;;;;;1.10;1.00;;;20.10;36.50;;;;;;5077049;28;20378;-47
2021/03/19 03:04:28;;;;;;;1.25;1.00;;;20.10;36.50;;;;;;5076407;28;20513;-45
2021/03/19 03:06:56;;;;;;;1.35;1.13;;;20.10;36.40;;;;;;5077027;28;20017;-48
2021/03/19 03:09:33;;;;;;;1.35;0.90;;;20.10;36.40;;;;;;5077306;28;20107;-45
2021/03/19 03:11:59;;;;;;;1.20;1.10;;;20.10;36.40;;;;;;5076802;28;20082;-46
2021/03/19 03:14:27;;;;;;;1.88;0.82;;;20.10;36.40;;;;;;5076749;28;20040;-43
2021/03/19 03:16:56;;;;;;;2.33;1.20;;;20.10;36.40;;;;;;5076459;28;20443;-44
2021/03/19 03:19:23;;;;;;;1.48;1.00;;;20.10;36.40;;;;;;5076948;28;20102;-45
2021/03/19 03:21:50;;;;;;;0.90;0.90;;;20.10;36.30;;;;;;5076568;28;20021;-44
2021/03/19 03:24:16;;;;;;;2.67;1.10;;;20.00;36.30;;;;;;5076902;28;20032;-44
2021/03/19 03:26:42;;;;;;;1.45;0.75;;;20.00;36.30;;;;;;5076590;28;20462;-46
2021/03/19 03:29:10;;;;;;;1.65;1.00;;;20.00;36.20;;;;;;5076693;28;20078;-44
2021/03/19 03:31:36;;;;;;;2.50;1.08;;;20.00;36.20;;;;;;5076580;28;20033;-46
2021/03/19 03:34:03;;;;;;;2.08;1.13;;;20.00;36.20;;;;;;5076169;28;20036;-49
2021/03/19 03:36:29;;;;;;;1.52;0.95;;;20.00;36.10;;;;;;5076082;28;20024;-48
2021/03/19 03:38:55;;;;;;;1.23;1.00;;;20.00;36.10;;;;;;5075821;28;20028;-45
2021/03/19 03:41:24;;;;;;;1.85;0.93;;;20.00;36.10;;;;;;5075938;28;20431;-46
2021/03/19 03:43:50;;;;;;;2.97;0.93;;;19.90;36.10;;;;;;5076433;28;20056;-43
2021/03/19 03:46:19;;;;;;;1.08;0.98;;;19.90;36.00;;;;;;5076143;28;20513;-44
2021/03/19 03:48:45;;;;;;;2.17;1.42;;;19.90;36.00;;;;;;5075845;28;20029;-43
2021/03/19 03:51:12;;;;;;;1.00;0.80;;;19.90;36.00;;;;;;5076032;28;20103;-45
2021/03/19 03:53:38;;;;;;;2.28;1.20;;;19.90;36.00;;;;;;5075878;28;20031;-45
2021/03/19 03:56:06;;;;;;;1.83;1.15;;;19.90;36.00;;;;;;5075947;28;20040;-45
2021/03/19 03:58:32;;;;;;;1.95;1.13;;;19.90;36.00;;;;;;5076140;28;20101;-46
2021/03/19 04:00:58;;;;;;;1.88;1.00;;;19.90;35.90;;;;;;5076315;28;20025;-44
2021/03/19 04:03:23;;;;;;;1.70;1.10;;;19.80;35.80;;;;;;5075790;28;20109;-44
2021/03/19 04:05:49;;;;;;;2.83;1.35;;;19.80;35.80;;;;;;5075143;28;20052;-46
2021/03/19 04:08:24;;;;;;;1.90;1.20;;;19.80;35.80;;;;;;5075636;28;20046;-48
2021/03/19 04:10:52;;;;;;;1.65;0.93;;;19.80;35.80;;;;;;5074971;28;20040;-48
2021/03/19 04:13:18;;;;;;;2.90;1.02;;;19.80;35.70;;;;;;5075692;28;20113;-46
2021/03/19 04:15:44;;;;;;;2.38;1.30;;;19.80;35.70;;;;;;5075070;28;20032;-45
2021/03/19 04:18:13;;;;;;;1.58;1.00;;;19.80;35.70;;;;;;5075440;28;20025;-46
2021/03/19 04:20:40;;;;;;;1.20;0.90;;;19.80;35.70;;;;;;5075954;28;20095;-48
2021/03/19 04:23:07;;;;;;;1.85;1.00;;;19.70;35.70;;;;;;5075040;28;20085;-50
2021/03/19 04:25:33;;;;;;;1.90;1.10;;;19.70;35.60;;;;;;5075363;28;20067;-49
2021/03/19 04:28:06;;;;;;;1.35;1.08;;;19.70;35.60;;;;;;5074961;28;20024;-49
2021/03/19 04:30:40;;;;;;;2.20;1.10;;;19.70;35.60;;;;;;5075091;28;20017;-50
2021/03/19 04:33:06;;;;;;;;;;;19.70;35.60;;;;;;5075988;28;20082;-50
2021/03/19 04:35:33;;;;;;;1.55;1.02;;;19.60;35.40;;;;;;5075466;28;19915;-44
2021/03/19 04:38:09;;;;;;;1.70;1.30;;;19.70;35.50;;;;;;5075273;28;20021;-47
2021/03/19 04:40:35;;;;;;;1.20;0.98;;;19.60;35.40;;;;;;5075274;28;20367;-47
2021/03/19 04:43:03;;;;;;;3.08;0.93;;;19.60;35.50;;;;;;5074602;28;20390;-46
2021/03/19 04:45:29;;;;;;;2.75;1.23;;;19.60;35.40;;;;;;5075029;28;20110;-47
2021/03/19 04:47:56;;;;;;;2.13;1.08;;;19.60;35.40;;;;;;5075132;28;20034;-45
2021/03/19 04:50:23;;;;;;;2.65;1.10;;;19.60;35.40;;;;;;5075287;28;20050;-43
2021/03/19 04:52:49;;;;;;;1.02;0.80;;;19.60;35.40;;;;;;5074963;28;20477;-45
2021/03/19 04:55:15;;;;;;;2.72;1.08;;;19.60;35.40;;;;;;5075308;28;20024;-46
2021/03/19 04:57:41;;;;;;;1.33;1.00;;;19.60;35.30;;;;;;5074947;28;20407;-46
2021/03/19 05:00:10;;;;;;;1.20;0.90;;;19.60;35.30;;;;;;5074986;28;20056;-48
2021/03/19 05:02:39;;;;;;;2.70;0.88;;;19.60;35.30;;;;;;5075151;28;20038;-49
2021/03/19 05:05:07;;;;;;;4.22;1.30;;;19.50;35.30;;;;;;5074550;28;20070;-43
2021/03/19 05:07:33;;;;;;;1.25;0.98;;;19.50;35.20;;;;;;5074960;28;20017;-45
2021/03/19 05:09:58;;;;;;;1.88;0.95;;;19.50;35.20;;;;;;5074755;28;20033;-45
2021/03/19 05:12:24;;;;;;;1.67;1.10;;;19.50;35.20;;;;;;5074757;28;20036;-44
2021/03/19 05:14:49;;;;;;;2.75;1.02;;;19.50;35.20;;;;;;5074826;28;20025;-45
2021/03/19 05:17:15;;;;;;;1.75;0.80;;;19.50;35.10;;;;;;5074367;28;20036;-44
2021/03/19 05:19:41;;;;;;;2.70;1.20;;;19.50;35.10;;;;;;5075124;28;20039;-44
2021/03/19 05:22:07;;;;;;;2.20;1.08;;;19.50;35.10;;;;;;5078724;28;20082;-51
2021/03/19 05:24:32;;;;;;;1.75;1.05;;;19.50;35.10;;;;;;5078713;28;20071;-43
2021/03/19 05:26:58;;;;;;;1.58;0.90;;;19.40;35.10;;;;;;5078779;28;20439;-47
2021/03/19 05:29:23;;;;;;;0.70;0.70;;;19.40;35.00;;;;;;5078957;28;20108;-50
2021/03/19 05:31:49;;;;;;;1.30;1.00;;;19.40;35.00;;;;;;5078702;28;20028;-45
2021/03/19 05:34:14;;;;;;;1.88;1.00;;;19.40;35.00;;;;;;5078592;28;20363;-47
2021/03/19 05:36:40;;;;;;;1.65;1.00;;;19.40;35.00;;;;;;5078763;28;20401;-46
2021/03/19 05:39:08;;;;;;;3.17;1.33;;;19.40;35.00;;;;;;5078667;28;20028;-45
2021/03/19 05:41:36;;;;;;;2.92;1.00;;;19.30;35.10;;;;;;5078314;28;20085;-43
2021/03/19 05:44:07;;;;;;;3.78;1.02;;;19.30;36.00;;;;;;5078728;28;20073;-47
2021/03/19 05:46:39;;;;;;;3.63;1.02;;;19.40;36.90;;;;;;5078137;28;20069;-46
2021/03/19 05:49:08;;;;;;;6.60;1.23;;;19.30;36.70;;;;;;5078481;28;20438;-45
2021/03/19 05:51:36;;;;;;;6.95;1.52;;;19.30;37.00;;;;;;5078017;28;20465;-44
2021/03/19 05:54:27;;;;;;;11.23;1.70;;;19.30;36.60;;;;;;5078061;28;20024;-45
2021/03/19 05:57:15;;;;;;;6.47;1.05;;;19.30;36.50;;;;;;5066303;28;20131;-46
2021/03/19 05:59:53;;;;;;;8.77;1.75;;;19.30;37.00;;;;;;5078270;28;20025;-46
2021/03/19 06:02:21;;;;;;;4.93;0.93;;;19.30;37.30;;;;;;5078007;28;20020;-49
2021/03/19 06:05:14;;;;;;;6.40;1.50;;;19.20;37.40;;;;;;5077967;28;20059;-46
2021/03/19 06:07:51;;;;;;;10.90;1.75;;;19.30;37.80;;;;;;5078050;28;20021;-48
2021/03/19 06:10:32;;;;;;;7.32;1.40;;;19.20;37.90;;;;;;5078142;28;20339;-48
2021/03/19 06:13:04;;;;;;;9.15;1.50;;;19.30;38.30;;;;;;5077453;28;20028;-44
2021/03/19 06:15:33;;;;;;;11.52;1.50;;;19.30;38.30;;;;;;5078146;28;20031;-45
2021/03/19 06:18:03;;;;;;;8.45;1.63;;;19.30;38.50;;;;;;5077674;28;20021;-51
2021/03/19 06:20:30;;;;;;;13.70;1.73;;;19.40;38.80;;;;;;5077561;28;20024;-47
2021/03/19 06:23:08;;;;;;;12.85;1.60;;;19.40;38.90;;;;;;5077794;28;20070;-45
2021/03/19 06:25:42;;;;;;;10.38;1.00;;;19.40;38.80;;;;;;5077519;28;20036;-45
2021/03/19 06:28:26;;;;;;;10.60;2.05;;;19.50;38.80;;;;;;5077277;28;20020;-43
2021/03/19 06:31:14;;;;;;;21.27;2.25;;;19.50;39.20;;;;;;5076885;28;20020;-45
2021/03/19 06:33:40;;;;;;;10.73;1.67;;;19.50;39.70;;;;;;5059093;28;20336;-46
2021/03/19 06:36:12;;;;;;;11.63;1.20;;;19.60;39.70;;;;;;5077494;28;20024;-46
2021/03/19 06:38:46;;;;;;;9.95;1.08;;;19.60;39.60;;;;;;5077554;28;20027;-46
2021/03/19 06:41:25;;;;;;;10.15;2.00;;;19.60;40.50;;;;;;5076723;28;20025;-46
2021/03/19 06:43:53;;;;;;;11.40;1.48;;;19.70;39.90;;;;;;5077617;28;20130;-44
2021/03/19 06:46:35;;;;;;;15.10;1.60;;;19.70;39.80;;;;;;5077343;28;20123;-49
2021/03/19 06:49:05;;;;;;;12.93;1.63;;;19.70;39.60;;;;;;5077373;28;20032;-45
2021/03/19 06:51:43;;;;;;;8.13;1.50;;;19.80;39.70;;;;;;5076978;28;20021;-44
2021/03/19 06:54:14;;;;;;;12.98;2.40;;;19.80;39.50;;;;;;5077009;28;20033;-46
2021/03/19 06:57:00;;;;;;;9.80;1.52;;;19.80;39.70;;;;;;5077356;28;20078;-47
2021/03/19 06:59:28;;;;;;;12.23;1.88;;;19.80;39.90;;;;;;5077206;28;20071;-46
2021/03/19 07:01:55;;;;;;;15.85;1.48;;;19.80;40.10;;;;;;5076828;28;20021;-47
2021/03/19 07:04:36;;;;;;;13.52;1.77;;;19.90;40.00;;;;;;5076632;28;20041;-45
2021/03/19 07:07:38;;;;;;;10.88;0.90;;;19.90;40.10;;;;;;5076472;28;20020;-46
2021/03/19 07:10:33;;;;;;;10.20;1.83;;;19.90;40.10;;;;;;5059211;28;20411;-46
2021/03/19 07:13:40;;;;;;;4.22;1.30;;;20.00;40.00;;;;;;5076806;28;20029;-45
2021/03/19 07:16:11;;;;;;;15.27;1.83;;;20.00;39.90;;;;;;4975879;28;20042;-44
2021/03/19 07:19:00;;;;;;;16.13;2.15;;;20.00;40.00;;;;;;4974601;28;20075;-47
2021/03/19 07:22:01;;;;;;;9.77;1.08;;;20.00;40.10;;;;;;5033476;28;20110;-44
2021/03/19 07:24:30;;;;;;;6.47;1.52;;;20.10;40.70;;;;;;5056527;28;20032;-49
2021/03/19 07:27:33;;;;;;;6.65;0.90;;;20.10;41.40;;;;;;5055876;28;20451;-50
2021/03/19 07:30:06;;;;;;;15.95;1.65;;;20.10;42.10;;;;;;5056392;28;20074;-49
2021/03/19 07:33:02;;;;;;;7.10;1.88;;;20.10;42.90;;;;;;5038804;28;20029;-45
2021/03/19 07:35:48;;;;;;;9.18;1.20;;;20.20;42.60;;;;;;5056110;28;20025;-47
2021/03/19 07:38:37;;;;;;;9.23;1.23;;;20.20;42.60;;;;;;5057014;28;20021;-54
2021/03/19 07:41:38;;;;;;;2.33;0.95;;;20.20;42.50;;;;;;5059242;28;20029;-51
2021/03/19 07:44:35;;;;;;;6.05;0.88;;;20.30;43.20;;;;;;5055006;28;20017;-49
2021/03/19 07:47:24;;;;;;;14.27;1.48;;;20.30;42.40;;;;;;5068255;28;20343;-53
2021/03/19 07:50:05;;;;;;;7.55;1.27;;;20.30;42.40;;;;;;5075912;28;20027;-50
2021/03/19 07:52:49;;;;;;;7.15;1.30;;;20.40;42.40;;;;;;5075915;28;20048;-49
2021/03/19 07:55:32;;;;;;;4.28;0.90;;;20.40;42.30;;;;;;5062703;28;20112;-48
2021/03/19 07:58:14;;;;;;;5.18;1.20;;;20.40;42.20;;;;;;5055870;28;20032;-53
2021/03/19 08:00:45;;;;;;;3.78;0.85;;;20.50;42.20;;;;;;5055640;28;20374;-51
2021/03/19 08:03:20;;;;;;;1.95;0.73;;;20.50;42.20;;;;;;5055956;28;20025;-48
2021/03/19 08:05:54;;;;;;;5.25;1.00;;;20.50;42.30;;;;;;5055575;28;20056;-52
2021/03/19 08:08:39;;;;;;;4.85;1.38;;;20.50;42.00;;;;;;5055641;28;20048;-49
2021/03/19 08:11:29;;;;;;;5.22;1.35;;;20.60;41.90;;;;;;5055467;28;20025;-52
2021/03/19 08:14:13;;;;;;;3.35;0.75;;;20.60;41.70;;;;;;5055562;28;20028;-49
2021/03/19 08:17:09;;;;;;;1.70;0.80;;;20.60;41.50;;;;;;5055374;28;20056;-49
2021/03/19 08:19:57;;;;;;;6.85;1.42;;;20.60;41.50;;;;;;5016004;28;20064;-49
2021/03/19 08:23:05;;;;;;;3.75;1.20;;;20.70;41.40;;;;;;5067875;28;20450;-50
2021/03/19 08:25:41;;;;;;;4.43;1.08;;;20.70;41.30;;;;;;5028403;28;20048;-46
2021/03/19 08:28:21;;;;;;;2.00;0.73;;;20.70;41.70;;;;;;5061095;28;20054;-50
2021/03/19 08:31:04;;;;;;;6.18;0.85;;;20.80;41.20;;;;;;5070516;28;20048;-46
2021/03/19 08:34:02;;;;;;;5.25;1.23;;;20.80;41.10;;;;;;5055285;28;20021;-46
2021/03/19 08:36:42;;;;;;;2.63;1.05;;;20.80;40.80;;;;;;5064503;28;20081;-55
2021/03/19 08:39:41;;;;;;;6.07;1.33;;;20.80;40.70;;;;;;5059931;28;20021;-49
2021/03/19 08:42:40;;;;;;;5.85;1.13;;;20.90;40.60;;;;;;5046373;28;20117;-50
2021/03/19 08:45:22;;;;;;;3.13;0.80;;;20.90;40.20;;;;;;4999717;28;20064;-50
2021/03/19 08:47:50;;;;;;;5.05;1.00;;;20.90;39.90;;;;;;5055263;28;20013;-49
2021/03/19 08:50:16;;;;;;;3.00;1.05;;;21.00;39.90;;;;;;5055301;28;20022;-50
2021/03/19 08:53:00;;;;;;;2.30;0.70;;;21.00;39.80;;;;;;5054673;28;20021;-51
2021/03/19 08:55:29;;;;;;;3.63;0.88;;;21.00;39.70;;;;;;5054821;28;20100;-51
2021/03/19 08:57:57;;;;;;;2.33;0.70;;;21.00;39.60;;;;;;5054849;28;20436;-49
2021/03/19 09:00:25;;;;;;;2.45;0.88;;;21.10;39.50;;;;;;5064430;28;20510;-52
2021/03/19 09:02:59;;;;;;;2.92;0.70;;;21.10;39.40;;;;;;5070516;28;20134;-48
2021/03/19 09:05:27;;;;;;;;;;;21.20;39.30;;;;;;5054394;28;20067;-49
2021/03/19 09:08:14;;;;;;;1.95;0.77;;;21.20;39.30;;;;;;5054818;28;19921;-47
2021/03/19 09:10:39;;;;;;;3.60;0.80;;;21.20;39.00;;;;;;5061490;28;20359;-46
2021/03/19 09:13:10;;;;;;;1.08;0.60;;;21.20;38.80;;;;;;5074870;28;20111;-49
2021/03/19 09:15:40;;;;;;;3.25;0.60;;;21.20;38.70;;;;;;5074802;28;20048;-48
2021/03/19 09:18:37;;;;;;;2.42;0.88;;;21.30;38.90;;;;;;5071573;28;20025;-51
2021/03/19 09:21:36;;;;;;;2.03;0.90;;;21.30;38.90;;;;;;5057061;28;20033;-47
2021/03/19 09:24:18;;;;;;;3.38;1.00;;;21.30;39.10;;;;;;5063346;28;20171;-47
2021/03/19 09:26:50;;;;;;;3.63;0.70;;;21.40;39.20;;;;;;5054157;28;20040;-48
2021/03/19 09:29:18;;;;;;;1.85;0.50;;;21.40;39.20;;;;;;5054796;28;20033;-47
2021/03/19 09:31:56;;;;;;;3.28;0.60;;;21.50;39.30;;;;;;5054477;28;20021;-51
2021/03/19 09:34:30;;;;;;;3.00;0.70;;;21.50;39.30;;;;;;5054367;28;20024;-51
2021/03/19 09:37:05;;;;;;;5.32;1.15;;;21.50;39.30;;;;;;5054492;28;20025;-49
2021/03/19 09:39:46;;;;;;;3.40;0.60;;;21.60;39.30;;;;;;5054369;28;20451;-53
2021/03/19 09:42:31;;;;;;;2.85;0.77;;;21.50;39.30;;;;;;5054517;28;20430;-50
2021/03/19 09:45:00;;;;;;;1.38;0.93;;;21.60;39.30;;;;;;5054476;28;20087;-47
2021/03/19 09:47:37;;;;;;;1.23;0.80;;;21.60;39.30;;;;;;5054452;28;20071;-49
2021/03/19 09:50:26;;;;;;;5.72;0.90;;;21.70;39.40;;;;;;5054086;28;20033;-54
2021/03/19 09:52:56;;;;;;;2.60;0.90;;;21.70;39.30;;;;;;5053730;28;20535;-47
2021/03/19 09:55:25;;;;;;;3.10;1.20;;;21.70;39.10;;;;;;5053762;28;20359;-50
2021/03/19 09:57:51;;;;;;;2.95;0.95;;;21.70;39.20;;;;;;5054301;28;20017;-51
2021/03/19 10:00:28;;;;;;;2.08;0.93;;;21.80;38.70;;;;;;5054341;28;20048;-51
2021/03/19 10:03:08;;;;;;;7.93;1.08;;;21.80;38.70;;;;;;5054367;28;20320;-47
2021/03/19 10:05:40;;;;;;;1.73;0.60;;;21.80;38.80;;;;;;5054165;28;20049;-52
2021/03/19 10:08:07;;;;;;;3.13;0.93;;;21.80;38.90;;;;;;5056039;28;20033;-48
2021/03/19 10:10:36;;;;;;;7.10;0.77;;;21.90;39.00;;;;;;5057594;28;20517;-48
2021/03/19 10:13:20;;;;;;;1.35;0.50;;;21.90;39.00;;;;;;5058269;28;20118;-51
2021/03/19 10:15:49;;;;;;;2.17;0.80;;;21.90;39.00;;;;;;5058071;28;20036;-46
2021/03/19 10:18:24;;;;;;;1.23;0.60;;;21.90;39.00;;;;;;5057767;28;20032;-48
2021/03/19 10:20:57;;;;;;;2.22;0.73;;;21.90;39.00;;;;;;5057884;28;20021;-45
2021/03/19 10:23:23;;;;;;;1.75;0.60;;;22.00;39.00;;;;;;5057629;28;20032;-51
2021/03/19 10:25:51;;;;;;;1.33;0.50;;;22.00;39.00;;;;;;5057520;28;20092;-49
2021/03/19 10:28:16;;;;;;;2.00;0.40;;;22.00;39.10;;;;;;5040157;28;20020;-45
2021/03/19 10:30:51;;;;;;;2.50;0.75;;;22.10;39.20;;;;;;5057193;28;20435;-47
2021/03/19 10:33:24;;;;;;;2.97;0.93;;;22.00;39.20;;;;;;5057464;28;20017;-49
2021/03/19 10:36:00;;;;;;;5.97;0.90;;;22.10;39.40;;;;;;5057882;28;20057;-50
2021/03/19 10:38:36;;;;;;;1.88;0.77;;;22.10;39.30;;;;;;5057131;28;20029;-46
2021/03/19 10:41:27;;;;;;;0.55;0.50;;;22.10;39.20;;;;;;5057472;28;20134;-50
2021/03/19 10:43:56;;;;;;;3.00;0.80;;;22.10;39.10;;;;;;5057218;28;20099;-50
2021/03/19 10:46:39;;;;;;;10.57;1.10;;;22.20;39.10;;;;;;5057382;28;20058;-46
2021/03/19 10:49:16;;;;;;;2.45;1.00;;;22.20;39.10;;;;;;5057335;28;20021;-48
2021/03/19 10:51:54;;;;;;;1.35;0.47;;;22.20;39.00;;;;;;5056286;28;20025;-47
2021/03/19 10:54:29;;;;;;;3.10;0.57;;;22.20;39.00;;;;;;5058046;28;20044;-50
2021/03/19 10:56:59;;;;;;;1.70;0.40;;;22.30;39.00;;;;;;5040389;28;20029;-47
2021/03/19 10:59:28;;;;;;;2.47;0.63;;;22.30;38.90;;;;;;5056615;28;20040;-47
2021/03/19 11:02:07;;;;;;;0.73;0.50;;;22.30;38.80;;;;;;5074438;28;20052;-46
2021/03/19 11:04:37;;;;;;;3.13;0.65;;;22.30;38.70;;;;;;5077018;28;20052;-46
2021/03/19 11:07:20;;;;;;;6.97;1.05;;;22.30;38.60;;;;;;5076901;28;20051;-50
2021/03/19 11:10:24;;;;;;;5.13;1.10;;;22.30;38.40;;;;;;5070186;28;20087;-48
2021/03/19 11:13:18;;;;;;;1.45;0.50;;;22.30;38.60;;;;;;5072982;28;20033;-51
2021/03/19 11:15:53;;;;;;;5.07;0.98;;;22.30;38.60;;;;;;5076695;28;20016;-49
2021/03/19 11:18:38;;;;;;;3.78;0.98;;;22.30;38.40;;;;;;5076523;28;20024;-51
2021/03/19 11:21:06;;;;;;;3.63;0.60;;;22.30;38.40;;;;;;5076554;28;20102;-49
2021/03/19 11:24:01;;;;;;;8.52;0.75;;;22.30;38.40;;;;;;5076239;28;20355;-49
2021/03/19 11:26:30;;;;;;;1.30;0.57;;;22.30;38.50;;;;;;5038213;28;20079;-49
2021/03/19 11:29:14;;;;;;;1.65;0.65;;;22.30;38.60;;;;;;5076463;28;20032;-48
2021/03/19 11:32:12;;;;;;;3.95;0.60;;;22.30;38.70;;;;;;5066637;28;20112;-46
2021/03/19 11:34:47;;;;;;;4.20;0.85;;;22.40;38.80;;;;;;5057323;28;20436;-48
2021/03/19 11:37:19;;;;;;;3.28;0.77;;;22.30;39.30;;;;;;5056330;28;20028;-49
2021/03/19 11:40:09;;;;;;;3.42;0.88;;;22.30;38.60;;;;;;5056183;28;20036;-54
2021/03/19 11:42:43;;;;;;;4.38;0.52;;;22.30;38.70;;;;;;5056226;28;20473;-52
2021/03/19 11:45:29;;;;;;;3.47;1.05;;;22.30;39.20;;;;;;5056026;28;20021;-51
2021/03/19 11:47:58;;;;;;;3.13;1.05;;;22.40;39.40;;;;;;5038296;28;20333;-52
2021/03/19 11:50:24;;;;;;;2.05;0.60;;;22.40;39.40;;;;;;5056073;28;20025;-46
2021/03/19 11:53:08;;;;;;;6.90;0.70;;;22.40;39.40;;;;;;5056061;28;20143;-51
2021/03/19 11:55:43;;;;;;;4.32;1.00;;;22.30;38.90;;;;;;5038258;28;20455;-52
2021/03/19 11:58:13;;;;;;;2.45;0.60;;;22.40;39.00;;;;;;5055755;28;20017;-53
2021/03/19 12:00:40;;;;;;;4.03;0.95;;;22.40;39.10;;;;;;5038572;28;20355;-52
2021/03/19 12:03:14;;;;;;;5.40;0.82;;;22.40;38.90;;;;;;5055756;28;20024;-53
2021/03/19 12:05:40;;;;;;;6.15;1.35;;;22.30;38.90;;;;;;5059257;28;20055;-56
2021/03/19 12:08:05;;;;;;;5.22;0.63;;;22.30;38.90;;;;;;5060784;28;20029;-51
2021/03/19 12:10:31;;;;;;;2.58;0.85;;;22.40;39.20;;;;;;5054807;28;20037;-53
2021/03/19 12:12:58;;;;;;;3.17;0.85;;;22.40;39.30;;;;;;5037270;28;20342;-51
2021/03/19 12:15:25;;;;;;;7.40;0.88;;;22.40;39.40;;;;;;5055436;28;20028;-55
2021/03/19 12:17:50;;;;;;;3.63;1.08;;;22.40;39.50;;;;;;5055534;28;20017;-55
2021/03/19 12:20:16;;;;;;;4.68;0.90;;;22.40;39.60;;;;;;5058267;28;20033;-53
2021/03/19 12:22:42;;;;;;;4.93;0.90;;;22.40;39.40;;;;;;5055446;28;20100;-54
2021/03/19 12:25:14;;;;;;;4.75;1.08;;;22.40;39.40;;;;;;5055429;28;20108;-56
2021/03/19 12:27:40;;;;;;;4.32;1.15;;;22.40;39.30;;;;;;5055523;28;20332;-51
2021/03/19 12:30:06;;;;;;;7.53;0.70;;;22.40;39.30;;;;;;5070027;28;20029;-55
2021/03/19 12:32:31;;;;;;;2.90;0.63;;;22.40;39.30;;;;;;5074591;28;20020;-56
2021/03/19 12:34:57;;;;;;;5.32;0.68;;;22.40;39.30;;;;;;5062111;28;20033;-54
2021/03/19 12:37:22;;;;;;;5.43;1.17;;;22.40;39.20;;;;;;5070948;28;20016;-52
2021/03/19 12:39:48;;;;;;;6.70;0.98;;;22.40;38.90;;;;;;5074510;28;20107;-49
2021/03/19 12:42:14;;;;;;;3.55;1.40;;;22.40;39.00;;;;;;5062432;28;20072;-52
2021/03/19 12:44:45;;;;;;;2.45;0.50;;;22.40;38.50;;;;;;5054914;28;20116;-52
2021/03/19 12:47:11;;;;;;;3.42;0.68;;;22.40;38.70;;;;;;5055316;28;20041;-53
2021/03/19 12:49:36;;;;;;;5.07;1.27;;;22.40;38.70;;;;;;5055021;28;20017;-54
2021/03/19 12:52:02;;;;;;;2.85;0.73;;;22.40;38.60;;;;;;5055114;28;20035;-53
2021/03/19 12:54:28;;;;;;;3.10;0.68;;;22.40;38.60;;;;;;5054989;28;20026;-50
2021/03/19 12:56:53;;;;;;;4.85;0.55;;;22.40;38.40;;;;;;5054799;28;20040;-54
2021/03/19 12:59:19;;;;;;;1.27;0.30;;;22.40;38.30;;;;;;5055476;28;20033;-54
2021/03/19 13:01:44;;;;;;;2.33;1.33;;;22.40;38.30;;;;;;5055025;28;20398;-50
2021/03/19 13:04:10;;;;;;;6.07;0.80;;;22.40;38.10;;;;;;5053880;28;20036;-53
2021/03/19 13:06:36;;;;;;;3.35;0.50;;;22.40;38.00;;;;;;5054634;28;20518;-55
2021/03/19 13:09:02;;;;;;;4.05;0.55;;;22.40;37.80;;;;;;5054775;28;20021;-50
2021/03/19 13:11:28;;;;;;;1.92;0.50;;;22.40;37.80;;;;;;5054502;28;20106;-51
2021/03/19 13:13:54;;;;;;;1.13;0.50;;;22.40;37.70;;;;;;5054775;28;20423;-52
2021/03/19 13:16:19;;;;;;;3.80;0.45;;;22.40;37.60;;;;;;5054985;28;20021;-53
2021/03/19 13:18:45;;;;;;;3.60;0.45;;;22.40;37.40;;;;;;5054895;28;20040;-54
2021/03/19 13:21:11;;;;;;;2.72;0.40;;;22.40;37.30;;;;;;5055010;28;20071;-55